createdAt,value
2022-08-22T00:00:13.755Z,100.00
2022-08-22T00:02:41.797Z,77.79
2022-08-22T00:02:49.632Z,100.00
2022-08-22T00:02:59.457Z,100.00
2022-08-22T00:03:01.815Z,86.60
2022-08-22T00:03:15.318Z,100.00
2022-08-22T00:05:42.542Z,100.00
2022-08-22T00:08:17.313Z,100.00
2022-08-22T00:10:53.327Z,100.00
2022-08-22T00:13:29.156Z,100.00
2022-08-22T00:16:09.016Z,100.00
2022-08-22T00:18:41.883Z,100.00
2022-08-22T00:21:13.036Z,100.00
2022-08-22T00:23:44.741Z,100.00
2022-08-22T00:26:22.152Z,100.00
2022-08-22T00:28:53.564Z,100.00
2022-08-22T00:31:28.884Z,100.00
2022-08-22T00:34:02.591Z,100.00
2022-08-22T00:36:37.221Z,100.00
2022-08-22T00:39:18.728Z,100.00
2022-08-22T00:42:02.767Z,100.00
2022-08-22T00:44:50.693Z,100.00
2022-08-22T00:47:41.279Z,100.00
2022-08-22T00:50:26.976Z,100.00
2022-08-22T00:53:15.957Z,100.00
2022-08-22T00:55:54.384Z,100.00
2022-08-22T00:58:56.096Z,100.00
2022-08-22T01:01:32.437Z,100.00
2022-08-22T01:04:13.400Z,100.00
2022-08-22T01:06:47.074Z,100.00
2022-08-22T01:09:24.867Z,100.00
2022-08-22T01:12:15.965Z,100.00
2022-08-22T01:14:47.927Z,100.00
2022-08-22T01:18:01.859Z,100.00
2022-08-22T01:20:51.407Z,100.00
2022-08-22T01:23:56.373Z,100.00
2022-08-22T01:27:12.672Z,100.00
2022-08-22T01:30:06.827Z,100.00
2022-08-22T01:33:14.561Z,100.00
2022-08-22T01:36:10.278Z,100.00
2022-08-22T01:39:03.445Z,100.00
2022-08-22T01:41:43.287Z,100.00
2022-08-22T01:44:39.398Z,100.00
2022-08-22T01:47:12.397Z,100.00
2022-08-22T01:49:45.665Z,100.00
2022-08-22T01:52:17.848Z,100.00
2022-08-22T01:54:54.154Z,100.00
2022-08-22T01:57:22.769Z,100.00
2022-08-22T01:59:53.547Z,100.00
2022-08-22T02:02:45.880Z,100.00
2022-08-22T02:05:25.150Z,100.00
2022-08-22T02:08:00.174Z,100.00
2022-08-22T02:10:44.750Z,100.00
2022-08-22T02:13:26.192Z,100.00
2022-08-22T02:16:06.271Z,100.00
2022-08-22T02:18:44.630Z,100.00
2022-08-22T02:21:20.077Z,100.00
2022-08-22T02:23:55.982Z,100.00
2022-08-22T02:26:28.097Z,100.00
2022-08-22T02:28:59.958Z,100.00
2022-08-22T02:31:39.667Z,100.00
2022-08-22T02:34:25.397Z,100.00
2022-08-22T02:36:58.163Z,100.00
2022-08-22T02:39:33.599Z,100.00
2022-08-22T02:42:13.143Z,100.00
2022-08-22T02:44:43.638Z,100.00
2022-08-22T02:47:13.974Z,100.00
2022-08-22T02:49:49.900Z,100.00
2022-08-22T02:52:25.144Z,100.00
2022-08-22T02:54:59.608Z,100.00
2022-08-22T02:57:39.302Z,100.00
2022-08-22T03:00:30.778Z,100.00
2022-08-22T03:03:06.724Z,100.00
2022-08-22T03:05:51.768Z,100.00
2022-08-22T03:08:25.062Z,100.00
2022-08-22T03:11:03.163Z,100.00
2022-08-22T03:13:41.181Z,100.00
2022-08-22T03:16:15.041Z,100.00
2022-08-22T03:18:47.144Z,100.00
2022-08-22T03:21:19.116Z,100.00
2022-08-22T03:23:49.990Z,100.00
2022-08-22T03:26:26.114Z,100.00
2022-08-22T03:28:59.183Z,100.00
2022-08-22T03:31:29.125Z,100.00
2022-08-22T03:34:18.975Z,100.00
2022-08-22T03:36:48.426Z,100.00
2022-08-22T03:39:20.547Z,100.00
2022-08-22T03:42:13.436Z,100.00
2022-08-22T03:45:10.190Z,100.00
2022-08-22T03:48:09.388Z,100.00
2022-08-22T03:50:57.254Z,100.00
2022-08-22T03:54:10.730Z,100.00
2022-08-22T03:57:19.863Z,100.00
2022-08-22T04:00:06.241Z,100.00
2022-08-22T04:02:55.197Z,100.00
2022-08-22T04:05:56.503Z,100.00
2022-08-22T04:08:58.257Z,100.00
2022-08-22T04:11:48.235Z,100.00
2022-08-22T04:14:36.406Z,100.00
2022-08-22T04:17:35.412Z,100.00
2022-08-22T04:20:39.431Z,100.00
2022-08-22T04:23:30.533Z,100.00
2022-08-22T04:26:00.737Z,100.00
2022-08-22T04:28:42.884Z,100.00
2022-08-22T04:31:12.974Z,100.00
2022-08-22T04:33:49.000Z,100.00
2022-08-22T04:36:21.505Z,100.00
2022-08-22T04:38:52.966Z,100.00
2022-08-22T04:41:27.011Z,100.00
2022-08-22T04:43:58.499Z,100.00
2022-08-22T04:46:36.769Z,100.00
2022-08-22T04:49:11.429Z,100.00
2022-08-22T04:51:41.987Z,100.00
2022-08-22T04:54:21.561Z,100.00
2022-08-22T04:56:59.412Z,100.00
2022-08-22T04:59:28.232Z,100.00
2022-08-22T05:02:00.553Z,100.00
2022-08-22T05:04:32.710Z,100.00
2022-08-22T05:07:06.772Z,100.00
2022-08-22T05:09:37.717Z,100.00
2022-08-22T05:12:09.352Z,100.00
2022-08-22T05:14:40.821Z,100.00
2022-08-22T05:17:10.600Z,100.00
2022-08-22T05:19:41.954Z,100.00
2022-08-22T05:22:16.648Z,100.00
2022-08-22T05:24:47.874Z,100.00
2022-08-22T05:27:21.067Z,100.00
2022-08-22T05:29:51.539Z,100.00
2022-08-22T05:32:23.069Z,100.00
2022-08-22T05:34:53.256Z,100.00
2022-08-22T05:37:24.288Z,100.00
2022-08-22T05:39:55.407Z,100.00
2022-08-22T05:42:26.616Z,100.00
2022-08-22T05:44:55.679Z,100.00
2022-08-22T05:47:25.905Z,100.00
2022-08-22T05:49:59.904Z,100.00
2022-08-22T05:52:38.503Z,100.00
2022-08-22T05:55:09.551Z,100.00
2022-08-22T05:57:40.608Z,100.00
2022-08-22T06:00:12.955Z,100.00
2022-08-22T06:02:50.599Z,100.00
2022-08-22T06:05:25.812Z,100.00
2022-08-22T06:07:56.985Z,100.00
2022-08-22T06:10:27.920Z,100.00
2022-08-22T06:12:59.921Z,100.00
2022-08-22T06:15:33.950Z,100.00
2022-08-22T06:18:05.312Z,100.00
2022-08-22T06:20:39.325Z,100.00
2022-08-22T06:23:09.147Z,100.00
2022-08-22T06:25:40.666Z,100.00
2022-08-22T06:28:10.942Z,100.00
2022-08-22T06:30:40.148Z,100.00
2022-08-22T06:33:12.477Z,100.00
2022-08-22T06:35:59.972Z,100.00
2022-08-22T06:38:32.479Z,100.00
2022-08-22T06:41:02.506Z,100.00
2022-08-22T06:43:38.604Z,100.00
2022-08-22T06:46:08.036Z,100.00
2022-08-22T06:48:36.931Z,100.00
2022-08-22T06:51:09.135Z,100.00
2022-08-22T06:53:45.938Z,100.00
2022-08-22T06:56:20.675Z,100.00
2022-08-22T06:58:52.671Z,100.00
2022-08-22T07:01:22.907Z,100.00
2022-08-22T07:03:52.956Z,100.00
2022-08-22T07:06:33.288Z,100.00
2022-08-22T07:09:06.264Z,100.00
2022-08-22T07:11:39.495Z,100.00
2022-08-22T07:14:11.646Z,100.00
2022-08-22T07:16:42.725Z,100.00
2022-08-22T07:19:11.803Z,100.00
2022-08-22T07:21:46.996Z,100.00
2022-08-22T07:24:16.750Z,100.00
2022-08-22T07:26:55.666Z,100.00
2022-08-22T07:29:28.715Z,100.00
2022-08-22T07:32:03.280Z,100.00
2022-08-22T07:34:40.836Z,100.00
2022-08-22T07:37:17.846Z,100.00
2022-08-22T07:39:51.675Z,100.00
2022-08-22T07:42:30.432Z,100.00
2022-08-22T07:45:05.194Z,100.00
2022-08-22T07:47:46.962Z,100.00
2022-08-22T07:50:23.206Z,100.00
2022-08-22T07:52:53.972Z,100.00
2022-08-22T07:55:24.965Z,100.00
2022-08-22T07:57:56.528Z,100.00
2022-08-22T08:00:25.695Z,100.00
2022-08-22T08:02:56.304Z,100.00
2022-08-22T08:05:27.555Z,100.00
2022-08-22T08:07:58.195Z,100.00
2022-08-22T08:10:30.260Z,100.00
2022-08-22T08:13:03.005Z,100.00
2022-08-22T08:15:33.404Z,100.00
2022-08-22T08:18:05.579Z,99.14
2022-08-22T08:20:36.072Z,99.64
2022-08-22T08:23:08.775Z,98.27
2022-08-22T08:25:53.812Z,100.00
2022-08-22T08:28:37.844Z,99.99
2022-08-22T08:31:15.304Z,100.00
2022-08-22T08:33:46.490Z,100.00
2022-08-22T08:36:26.593Z,100.00
2022-08-22T08:39:00.259Z,98.96
2022-08-22T08:41:39.649Z,96.11
2022-08-22T08:44:17.103Z,100.00
2022-08-22T08:47:24.704Z,96.26
2022-08-22T08:50:15.492Z,93.45
2022-08-22T08:53:07.065Z,96.85
2022-08-22T08:55:46.711Z,95.08
2022-08-22T08:58:31.971Z,95.14
2022-08-22T09:01:09.978Z,93.70
2022-08-22T09:04:15.375Z,94.97
2022-08-22T09:07:06.827Z,91.58
2022-08-22T09:09:52.285Z,99.12
2022-08-22T09:16:04.517Z,90.58
2022-08-22T09:19:02.780Z,87.94
2022-08-22T09:22:01.775Z,88.30
2022-08-22T09:25:06.181Z,86.67
2022-08-22T09:27:37.657Z,87.26
2022-08-22T09:33:02.003Z,82.97
2022-08-22T09:35:43.942Z,83.97
2022-08-22T09:38:34.638Z,88.76
2022-08-22T09:40:15.989Z,91.42
2022-08-22T09:41:14.214Z,87.57
2022-08-22T09:43:48.751Z,88.63
2022-08-22T09:46:20.606Z,88.23
2022-08-22T09:49:02.123Z,83.14
2022-08-22T09:51:38.832Z,80.74
2022-08-22T09:54:24.487Z,84.88
2022-08-22T09:57:03.729Z,82.52
2022-08-22T09:59:53.656Z,85.90
2022-08-22T10:02:32.443Z,78.22
2022-08-22T10:05:11.305Z,94.80
2022-08-22T10:08:30.914Z,84.87
2022-08-22T10:11:12.466Z,83.80
2022-08-22T10:14:02.940Z,81.86
2022-08-22T10:16:45.465Z,84.00
2022-08-22T10:22:33.723Z,81.58
2022-08-22T10:25:28.585Z,72.73
2022-08-22T10:28:15.884Z,76.27
2022-08-22T10:30:50.644Z,70.59
2022-08-22T10:33:26.371Z,76.30
2022-08-22T10:36:05.057Z,77.10
2022-08-22T10:38:46.119Z,69.31
2022-08-22T10:41:23.253Z,74.40
2022-08-22T10:44:00.472Z,71.27
2022-08-22T10:46:33.681Z,69.82
2022-08-22T10:49:07.827Z,73.26
2022-08-22T10:51:41.151Z,70.66
2022-08-22T10:54:34.224Z,67.74
2022-08-22T10:57:32.695Z,67.27
2022-08-22T11:00:09.284Z,65.07
2022-08-22T11:02:44.935Z,66.98
2022-08-22T11:05:35.326Z,65.90
2022-08-22T11:08:18.441Z,66.56
2022-08-22T11:11:01.639Z,65.43
2022-08-22T11:13:33.756Z,69.71
2022-08-22T11:16:08.759Z,66.50
2022-08-22T11:19:01.895Z,64.89
2022-08-22T11:21:47.070Z,64.18
2022-08-22T11:25:04.457Z,64.72
2022-08-22T11:27:40.734Z,63.20
2022-08-22T11:30:18.799Z,61.57
2022-08-22T11:33:19.412Z,62.26
2022-08-22T11:35:55.970Z,64.05
2022-08-22T11:38:33.557Z,60.69
2022-08-22T11:41:05.831Z,57.40
2022-08-22T11:43:42.435Z,63.65
2022-08-22T11:46:30.103Z,60.95
2022-08-22T11:49:33.634Z,60.57
2022-08-22T11:52:19.785Z,60.92
2022-08-22T11:55:09.643Z,59.57
2022-08-22T11:57:39.510Z,54.72
2022-08-22T12:00:29.471Z,56.76
2022-08-22T12:03:24.809Z,58.25
2022-08-22T12:05:55.965Z,60.25
2022-08-22T12:09:04.236Z,57.23
2022-08-22T12:11:40.701Z,62.18
2022-08-22T12:14:19.561Z,59.28
2022-08-22T12:16:57.863Z,59.53
2022-08-22T12:19:32.885Z,64.03
2022-08-22T12:22:32.544Z,62.09
2022-08-22T12:25:09.771Z,59.83
2022-08-22T12:27:55.101Z,57.29
2022-08-22T12:30:32.996Z,54.19
2022-08-22T12:33:23.182Z,56.39
2022-08-22T12:36:00.187Z,55.17
2022-08-22T12:38:41.592Z,56.70
2022-08-22T12:41:46.653Z,53.33
2022-08-22T12:44:38.169Z,53.47
2022-08-22T12:47:15.002Z,51.10
2022-08-22T12:50:00.150Z,51.49
2022-08-22T12:52:42.479Z,51.48
2022-08-22T12:55:44.885Z,51.82
2022-08-22T12:58:17.919Z,53.88
2022-08-22T13:00:49.067Z,48.21
2022-08-22T13:03:25.291Z,50.87
2022-08-22T13:05:57.246Z,46.27
2022-08-22T13:08:31.723Z,49.70
2022-08-22T13:11:02.458Z,44.26
2022-08-22T13:13:38.687Z,47.83
2022-08-22T13:16:11.658Z,44.50
2022-08-22T13:18:53.419Z,49.96
2022-08-22T13:21:25.871Z,48.59
2022-08-22T13:24:10.532Z,43.74
2022-08-22T13:26:49.047Z,50.21
2022-08-22T13:29:39.175Z,50.47
2022-08-22T13:32:12.714Z,49.85
2022-08-22T13:34:45.643Z,48.35
2022-08-22T13:37:20.165Z,46.75
2022-08-22T13:39:55.480Z,45.77
2022-08-22T13:42:30.604Z,41.98
2022-08-22T13:45:02.615Z,45.98
2022-08-22T13:47:34.579Z,46.31
2022-08-22T13:50:11.288Z,41.52
2022-08-22T13:52:52.485Z,46.31
2022-08-22T13:55:30.035Z,45.79
2022-08-22T13:58:06.963Z,45.15
2022-08-22T14:01:25.234Z,46.51
2022-08-22T14:03:58.743Z,40.95
2022-08-22T14:06:41.372Z,46.17
2022-08-22T14:09:29.550Z,44.82
2022-08-22T14:12:11.981Z,46.24
2022-08-22T14:14:42.918Z,44.64
2022-08-22T14:17:16.615Z,42.29
2022-08-22T14:19:58.544Z,43.01
2022-08-22T14:22:31.799Z,43.55
2022-08-22T14:25:07.374Z,43.19
2022-08-22T14:27:39.711Z,41.58
2022-08-22T14:30:15.029Z,42.45
2022-08-22T14:32:46.853Z,42.37
2022-08-22T14:35:23.599Z,42.37
2022-08-22T14:38:21.333Z,43.30
2022-08-22T14:40:57.525Z,43.92
2022-08-22T14:43:46.274Z,42.67
2022-08-22T14:46:19.494Z,42.61
2022-08-22T14:49:03.828Z,44.23
2022-08-22T14:51:33.732Z,39.36
2022-08-22T14:54:14.051Z,42.12
2022-08-22T14:56:50.244Z,40.38
2022-08-22T14:59:38.149Z,39.89
2022-08-22T15:02:09.705Z,37.57
2022-08-22T15:04:39.945Z,39.56
2022-08-22T15:07:09.902Z,38.69
2022-08-22T15:09:41.647Z,40.70
2022-08-22T15:12:22.025Z,42.96
2022-08-22T15:14:53.467Z,42.37
2022-08-22T15:17:39.996Z,40.79
2022-08-22T15:20:27.848Z,42.91
2022-08-22T15:23:00.493Z,44.09
2022-08-22T15:25:31.910Z,43.52
2022-08-22T15:28:05.715Z,43.56
2022-08-22T15:30:44.130Z,42.98
2022-08-22T15:33:16.864Z,42.63
2022-08-22T15:35:47.770Z,40.94
2022-08-22T15:38:29.934Z,41.68
2022-08-22T15:41:19.107Z,43.59
2022-08-22T15:43:49.455Z,45.70
2022-08-22T15:46:28.889Z,45.65
2022-08-22T15:49:01.860Z,46.09
2022-08-22T15:51:39.452Z,47.23
2022-08-22T15:54:16.312Z,47.60
2022-08-22T15:57:15.322Z,48.12
2022-08-22T15:59:53.971Z,48.49
2022-08-22T16:02:27.147Z,47.72
2022-08-22T16:05:05.188Z,47.26
2022-08-22T16:07:40.704Z,46.96
2022-08-22T16:10:13.290Z,49.37
2022-08-22T16:12:44.252Z,48.34
2022-08-22T16:15:45.460Z,47.95
2022-08-22T16:18:51.788Z,49.10
2022-08-22T16:21:59.428Z,48.78
2022-08-22T16:24:33.966Z,48.35
2022-08-22T16:27:20.014Z,48.55
2022-08-22T16:29:48.097Z,49.46
2022-08-22T16:32:24.346Z,50.06
2022-08-22T16:34:52.321Z,49.23
2022-08-22T16:37:48.004Z,51.21
2022-08-22T16:40:26.793Z,50.39
2022-08-22T16:43:17.187Z,50.40
2022-08-22T16:45:47.355Z,49.74
2022-08-22T16:48:23.351Z,51.00
2022-08-22T16:51:03.733Z,48.74
2022-08-22T16:54:04.270Z,48.99
2022-08-22T16:56:36.232Z,47.35
2022-08-22T16:59:38.314Z,46.63
2022-08-22T17:02:39.095Z,50.65
2022-08-22T17:05:21.592Z,52.25
2022-08-22T17:07:59.541Z,53.59
2022-08-22T17:10:43.506Z,54.45
2022-08-22T17:13:26.367Z,54.64
2022-08-22T17:16:07.907Z,54.07
2022-08-22T17:18:54.560Z,57.34
2022-08-22T17:21:26.418Z,56.29
2022-08-22T17:24:01.360Z,58.60
2022-08-22T17:26:47.178Z,57.29
2022-08-22T17:29:19.295Z,58.12
2022-08-22T17:31:52.009Z,57.70
2022-08-22T17:34:30.332Z,54.90
2022-08-22T17:37:09.018Z,52.35
2022-08-22T17:39:54.151Z,57.19
2022-08-22T17:42:55.772Z,54.88
2022-08-22T17:45:30.881Z,54.21
2022-08-22T17:48:03.971Z,58.33
2022-08-22T17:50:39.351Z,58.45
2022-08-22T17:53:12.449Z,61.41
2022-08-22T17:55:58.334Z,59.93
2022-08-22T17:58:37.659Z,60.75
2022-08-22T18:01:16.712Z,61.67
2022-08-22T18:03:48.502Z,60.95
2022-08-22T18:06:21.902Z,63.47
2022-08-22T18:11:46.990Z,64.90
2022-08-22T18:14:26.098Z,63.48
2022-08-22T18:16:55.340Z,68.99
2022-08-22T18:19:42.525Z,65.97
2022-08-22T18:22:18.971Z,69.71
2022-08-22T18:24:51.331Z,66.89
2022-08-22T18:27:30.069Z,66.69
2022-08-22T18:30:07.475Z,69.81
2022-08-22T18:32:38.673Z,68.63
2022-08-22T18:35:15.841Z,68.74
2022-08-22T18:37:51.357Z,68.12
2022-08-22T18:40:28.771Z,67.42
2022-08-22T18:43:04.693Z,71.60
2022-08-22T18:45:57.398Z,68.29
2022-08-22T18:48:30.837Z,69.14
2022-08-22T18:51:24.305Z,71.06
2022-08-22T18:53:56.758Z,70.49
2022-08-22T18:56:46.228Z,70.56
2022-08-22T18:59:37.399Z,71.49
2022-08-22T19:02:35.289Z,73.00
2022-08-22T19:05:24.997Z,77.80
2022-08-22T19:08:09.398Z,80.14
2022-08-22T19:10:53.979Z,81.67
2022-08-22T19:13:34.011Z,76.49
2022-08-22T19:16:26.897Z,78.66
2022-08-22T19:18:56.787Z,84.91
2022-08-22T19:21:45.201Z,78.93
2022-08-22T19:24:35.652Z,86.12
2022-08-22T19:27:31.466Z,88.79
2022-08-22T19:30:02.330Z,96.73
2022-08-22T19:33:00.422Z,94.12
2022-08-22T19:35:36.319Z,84.11
2022-08-22T19:38:07.671Z,84.58
2022-08-22T19:41:05.800Z,89.86
2022-08-22T19:43:40.969Z,92.67
2022-08-22T19:46:10.990Z,87.54
2022-08-22T19:48:48.582Z,91.61
2022-08-22T19:51:28.170Z,93.56
2022-08-22T19:54:16.309Z,85.52
2022-08-22T19:57:04.217Z,84.25
2022-08-22T19:59:50.440Z,84.90
2022-08-22T20:02:26.493Z,83.24
2022-08-22T20:05:20.302Z,83.21
2022-08-22T20:07:59.298Z,83.99
2022-08-22T20:10:31.203Z,83.35
2022-08-22T20:13:05.595Z,85.33
2022-08-22T20:16:13.605Z,83.81
2022-08-22T20:19:16.653Z,83.53
2022-08-22T20:21:50.268Z,84.43
2022-08-22T20:24:24.613Z,84.88
2022-08-22T20:27:12.846Z,84.87
2022-08-22T20:29:45.959Z,84.47
2022-08-22T20:32:16.599Z,85.61
2022-08-22T20:34:44.898Z,84.46
2022-08-22T20:37:45.379Z,84.02
2022-08-22T20:40:25.800Z,84.40
2022-08-22T20:43:12.231Z,87.48
2022-08-22T20:45:48.966Z,84.92
2022-08-22T20:48:19.303Z,84.67
2022-08-22T20:50:47.266Z,85.38
2022-08-22T20:53:19.945Z,85.44
2022-08-22T20:55:54.779Z,85.53
2022-08-22T20:58:25.521Z,86.01
2022-08-22T21:01:00.071Z,85.90
2022-08-22T21:03:36.134Z,86.54
2022-08-22T21:06:11.937Z,86.57
2022-08-22T21:08:40.339Z,88.97
2022-08-22T21:11:29.183Z,95.13
2022-08-22T21:13:59.276Z,88.22
2022-08-22T21:16:31.543Z,90.44
2022-08-22T21:19:02.661Z,88.70
2022-08-22T21:21:32.057Z,88.72
2022-08-22T21:24:02.525Z,88.45
2022-08-22T21:26:32.659Z,87.84
2022-08-22T21:29:04.038Z,87.71
2022-08-22T21:31:34.556Z,87.58
2022-08-22T21:34:05.827Z,88.50
2022-08-22T21:36:39.021Z,89.25
2022-08-22T21:39:13.310Z,90.09
2022-08-22T21:41:42.998Z,88.46
2022-08-22T21:44:26.519Z,87.18
2022-08-22T21:46:54.534Z,86.52
2022-08-22T21:49:26.819Z,84.08
2022-08-22T21:51:54.770Z,81.53
2022-08-22T21:54:40.960Z,84.27
2022-08-22T21:57:21.228Z,83.07
2022-08-22T21:59:59.374Z,81.93
2022-08-22T22:02:36.489Z,81.83
2022-08-22T22:05:11.517Z,80.30
2022-08-22T22:07:40.909Z,74.75
2022-08-22T22:10:11.052Z,79.10
2022-08-22T22:12:40.847Z,77.10
2022-08-22T22:15:09.991Z,78.14
2022-08-22T22:17:37.978Z,78.40
2022-08-22T22:20:09.022Z,77.06
2022-08-22T22:22:45.805Z,70.34
2022-08-22T22:25:40.509Z,76.65
2022-08-22T22:28:06.460Z,76.11
2022-08-22T22:30:34.587Z,74.14
2022-08-22T22:33:02.540Z,75.40
2022-08-22T22:35:32.280Z,71.96
2022-08-22T22:38:00.397Z,73.22
2022-08-22T22:40:28.543Z,73.14
2022-08-22T22:42:56.509Z,73.94
2022-08-22T22:45:24.507Z,73.71
2022-08-22T22:47:52.697Z,72.04
2022-08-22T22:50:20.885Z,70.36
2022-08-22T22:52:50.229Z,70.28
2022-08-22T22:55:24.970Z,72.42
2022-08-22T22:57:58.604Z,70.96
2022-08-22T23:00:29.188Z,71.49
2022-08-22T23:02:59.395Z,71.46
2022-08-22T23:05:27.457Z,71.81
2022-08-22T23:07:56.853Z,70.42
2022-08-22T23:10:25.184Z,69.26
2022-08-22T23:12:53.134Z,71.25
2022-08-22T23:15:21.344Z,72.21
2022-08-22T23:17:49.339Z,68.28
2022-08-22T23:20:17.286Z,72.59
2022-08-22T23:22:45.339Z,71.83
2022-08-22T23:25:14.878Z,70.82
2022-08-22T23:27:42.856Z,69.40
2022-08-22T23:30:12.423Z,71.44
2022-08-22T23:32:40.672Z,68.81
2022-08-22T23:35:09.317Z,70.00
2022-08-22T23:37:37.322Z,68.45
2022-08-22T23:40:07.524Z,72.37
2022-08-22T23:42:36.917Z,71.74
2022-08-22T23:45:05.523Z,71.87
2022-08-22T23:47:33.499Z,71.23
2022-08-22T23:50:05.821Z,70.80
2022-08-22T23:52:34.395Z,70.75
2022-08-22T23:55:02.306Z,71.22
2022-08-22T23:57:30.258Z,70.62
2022-08-22T23:59:59.827Z,69.38
